Obernburg, New York
Current Conditions -  °F | °C
As of 5:15 AM on Thursday 23 Oct 2014 (Local Time) from KMSV Reporting Station
Overcast Overcast  
Wind Chill: 41°   Ceiling: 2000
Heat Index: 46°   Visibility: 10mi
Dew Point: 45°   Wind: 12mph
Humidity: 93%   Direction: 340°NNW
Pressure: 29.8"   Gusts: 20mph
Location:  41.84°N, 75.01°W
Report Text: KMSV 230915Z AUTO 34010G17KT 10SM BKN020 BKN024 OVC085 08/07 A2980 RMK AO1
Loading
Personal Weather Stations






























Interactive Weather Map
Tropical Storm Tracking
New forecast layout! Learn more

10-Day Weather Forecast

Advertisements
Track Severe Weather on mobile